Kezdőlap
METAR-TAF:

METAR-TAF

Repülőterek :

Rász el-Haima, Egyesült Arab Emírségek

földrajzi szélesség: 25-37N, földrajzi hosszúság: 055-56E, magasság: 31 m

Jelenlegi meteorológiai megfigyelések

A jelentés 57 perccel ezelõtt készült, 01:00 UTC
Déli szél 6 kt
Hőmérséklet 26°C
Páratartalom 45%
Légköri nyomás 1002 hPa
Látótávolság 10 km, vagy több
felhőtlen 1500 m magasságban, és nincs gomolyfelhõ

METAR: OMRK 240100Z 17006KT CAVOK 26/13 Q1002 A2959

Idő: 05:57 (01:57 UTC)

Előrejelzés

A jelentés 2 órával és 57 perccel ezelõtt készült, 23:00 UTC
Az előrejelzés 24-én 00 óra UTC és 25-én 06 óra UTC között érvényes
Dél-délnyugati szél 5 kt
Látótávolság: 8000 m
24-én 06 óra UTC és 24-én 08 óra UTC között fokozatosan kialakuló
Nyugat-északnyugati szél 13 kt
24-én 15 óra UTC és 24-én 17 óra UTC között fokozatosan kialakuló
Déli szél 7 kt

TAF: OMRK 232300Z 2400/2506 20005KT 8000 NSC BECMG 2406/2408 30013KT BECMG 2415/2417 18007KT

Meteorológiai megfigyelések és előrejelzések több, mint 4000 repülőtéren (METAR és TAF jelentéseket).

A térképen piros és sárga pontok jelzik az elérhető meteorológiai állomásokat.

Mozgassa az egeret a pont fölött, hogy megjelenjen az állomás neve.

Azután kattintson az időjárási megfigyelések és előrejelzések megtekintéséhez.

A térkép megváltoztatása: kattintson a fekete keresztel jelölt zöld gombra ráközelítéshez, a vonallal jelölt zöld gombra távolításhoz, vagy a zöld nyilakra a szomszédos térképek eléréséhez.


METAR-TAF: